Portada
METAR-TAF:

METAR-TAF

Aeroports :

Xiamen, Xina

latitud: 24-29N, longitud: 118-05E, altitud: 139 m

Observació

L'informe es va fer fa 51 minuts, a les 22:00 UTC
Vent 4 kt del Oest, variant entre Sud-Oest i Oest/Nord-Oest
Temperatura 16°C
Humitat 82%
Pressió 1017 hPa
Visibilitat: 7000 m

METAR: ZSAM 202200Z 26002MPS 230V290 7000 NSC 16/13 Q1017 NOSIG

Hora: 06:51 (22:51 UTC)

Pronòstic

L'informe es va fer fa 7 hores i 38 minuts, a les 15:13 UTC
Pronòstic vàlid del 20 a les 18 UTC al 21 a les 18 UTC
Vent 6 kt del Est/Sud-Est
Visibilitat: 6000 m
Escasses núvols a una alçada de 4000 ft

TAF: ZSAM 201513Z 2018/2118 11003MPS 6000 FEW040 TX25/2106Z TN14/2021Z

Observacions i pronòstics meteorològics de més de 4000 aeroports (METAR i TAF).

Les estacions disponibles són els punts grocs i vermells al mapa.

Posi el ratolí al punt desitjat per veure el nom de l'estació.

Feu clic per veure les observacions i els pronòstics meteorològics.

Per canviar el mapa: feu clic els botons verds amb una creu de color negre per apropar; al botó verd amb un guió per allunyar la imatge; o en les fletxes verdes per a mapes adjacents.


METAR-TAF: